sensor_id;sensor_type;location;lat;lon;timestamp;P1;durP1;ratioP1;P2;durP2;ratioP2
62610;SDS011;48683;48.084;17.272;2023-12-20T00:01:45;107.80;;;30.80;;
62610;SDS011;48683;48.084;17.272;2023-12-20T00:04:10;174.48;;;34.28;;
62610;SDS011;48683;48.084;17.272;2023-12-20T00:06:36;211.43;;;37.63;;
62610;SDS011;48683;48.084;17.272;2023-12-20T00:09:01;206.18;;;36.13;;
62610;SDS011;48683;48.084;17.272;2023-12-20T00:11:26;245.98;;;39.40;;
62610;SDS011;48683;48.084;17.272;2023-12-20T00:13:52;166.32;;;37.40;;
62610;SDS011;48683;48.084;17.272;2023-12-20T00:16:17;203.45;;;36.20;;
62610;SDS011;48683;48.084;17.272;2023-12-20T00:18:43;218.70;;;38.10;;
62610;SDS011;48683;48.084;17.272;2023-12-20T00:21:08;205.75;;;35.33;;
62610;SDS011;48683;48.084;17.272;2023-12-20T00:23:33;156.13;;;35.90;;
62610;SDS011;48683;48.084;17.272;2023-12-20T00:25:59;225.52;;;35.70;;
62610;SDS011;48683;48.084;17.272;2023-12-20T00:28:24;265.10;;;41.13;;
62610;SDS011;48683;48.084;17.272;2023-12-20T00:30:49;229.57;;;35.42;;
62610;SDS011;48683;48.084;17.272;2023-12-20T00:33:15;216.27;;;36.80;;
62610;SDS011;48683;48.084;17.272;2023-12-20T00:35:40;252.95;;;38.97;;
62610;SDS011;48683;48.084;17.272;2023-12-20T00:38:06;207.50;;;35.45;;
62610;SDS011;48683;48.084;17.272;2023-12-20T00:40:32;233.13;;;36.80;;
62610;SDS011;48683;48.084;17.272;2023-12-20T00:42:58;211.07;;;37.13;;
62610;SDS011;48683;48.084;17.272;2023-12-20T00:45:23;199.45;;;36.92;;
62610;SDS011;48683;48.084;17.272;2023-12-20T00:47:48;141.40;;;32.53;;
62610;SDS011;48683;48.084;17.272;2023-12-20T00:50:14;186.32;;;34.78;;
62610;SDS011;48683;48.084;17.272;2023-12-20T00:52:39;173.63;;;33.63;;
62610;SDS011;48683;48.084;17.272;2023-12-20T00:55:05;161.13;;;33.65;;
62610;SDS011;48683;48.084;17.272;2023-12-20T00:57:30;126.78;;;30.35;;
62610;SDS011;48683;48.084;17.272;2023-12-20T00:59:56;176.05;;;35.08;;
62610;SDS011;48683;48.084;17.272;2023-12-20T01:02:21;138.45;;;33.15;;
62610;SDS011;48683;48.084;17.272;2023-12-20T01:04:47;139.77;;;32.42;;
62610;SDS011;48683;48.084;17.272;2023-12-20T01:07:12;184.10;;;38.13;;
62610;SDS011;48683;48.084;17.272;2023-12-20T01:09:37;167.60;;;34.38;;
62610;SDS011;48683;48.084;17.272;2023-12-20T01:12:03;270.13;;;42.00;;
62610;SDS011;48683;48.084;17.272;2023-12-20T01:14:28;241.43;;;37.92;;
62610;SDS011;48683;48.084;17.272;2023-12-20T01:16:53;180.75;;;35.97;;
62610;SDS011;48683;48.084;17.272;2023-12-20T01:19:19;187.45;;;37.10;;
62610;SDS011;48683;48.084;17.272;2023-12-20T01:21:44;193.55;;;36.17;;
62610;SDS011;48683;48.084;17.272;2023-12-20T01:24:09;104.18;;;31.77;;
62610;SDS011;48683;48.084;17.272;2023-12-20T01:26:35;160.27;;;32.35;;
62610;SDS011;48683;48.084;17.272;2023-12-20T01:29:00;184.57;;;34.20;;
62610;SDS011;48683;48.084;17.272;2023-12-20T01:31:26;128.75;;;32.70;;
62610;SDS011;48683;48.084;17.272;2023-12-20T01:33:52;204.05;;;35.97;;
62610;SDS011;48683;48.084;17.272;2023-12-20T01:36:17;159.07;;;33.20;;
62610;SDS011;48683;48.084;17.272;2023-12-20T01:38:43;211.07;;;36.35;;
62610;SDS011;48683;48.084;17.272;2023-12-20T01:41:08;213.25;;;36.80;;
62610;SDS011;48683;48.084;17.272;2023-12-20T01:43:33;124.00;;;32.85;;
62610;SDS011;48683;48.084;17.272;2023-12-20T01:45:59;157.00;;;32.78;;
62610;SDS011;48683;48.084;17.272;2023-12-20T01:48:25;165.40;;;31.83;;
62610;SDS011;48683;48.084;17.272;2023-12-20T01:50:51;221.82;;;35.03;;
62610;SDS011;48683;48.084;17.272;2023-12-20T01:53:16;198.60;;;33.90;;
62610;SDS011;48683;48.084;17.272;2023-12-20T01:55:44;238.75;;;36.90;;
62610;SDS011;48683;48.084;17.272;2023-12-20T01:58:10;234.05;;;35.13;;
62610;SDS011;48683;48.084;17.272;2023-12-20T02:00:36;250.93;;;36.38;;
62610;SDS011;48683;48.084;17.272;2023-12-20T02:03:02;170.10;;;33.50;;
62610;SDS011;48683;48.084;17.272;2023-12-20T02:05:32;180.77;;;33.65;;
62610;SDS011;48683;48.084;17.272;2023-12-20T02:07:59;138.15;;;30.50;;
62610;SDS011;48683;48.084;17.272;2023-12-20T02:10:24;101.35;;;27.80;;
62610;SDS011;48683;48.084;17.272;2023-12-20T02:12:50;189.43;;;31.90;;
62610;SDS011;48683;48.084;17.272;2023-12-20T02:15:15;156.57;;;32.78;;
62610;SDS011;48683;48.084;17.272;2023-12-20T02:17:41;202.80;;;37.10;;
62610;SDS011;48683;48.084;17.272;2023-12-20T02:20:06;97.47;;;28.17;;
62610;SDS011;48683;48.084;17.272;2023-12-20T02:22:32;90.43;;;28.15;;
62610;SDS011;48683;48.084;17.272;2023-12-20T02:24:57;180.73;;;32.63;;
62610;SDS011;48683;48.084;17.272;2023-12-20T02:27:23;57.22;;;25.70;;
62610;SDS011;48683;48.084;17.272;2023-12-20T02:29:49;275.60;;;36.47;;
62610;SDS011;48683;48.084;17.272;2023-12-20T02:32:15;179.57;;;32.33;;
62610;SDS011;48683;48.084;17.272;2023-12-20T02:34:41;189.60;;;33.50;;
62610;SDS011;48683;48.084;17.272;2023-12-20T02:37:06;230.63;;;35.08;;
62610;SDS011;48683;48.084;17.272;2023-12-20T02:39:32;154.40;;;30.15;;
62610;SDS011;48683;48.084;17.272;2023-12-20T02:41:58;68.20;;;26.95;;
62610;SDS011;48683;48.084;17.272;2023-12-20T02:44:23;202.13;;;34.92;;
62610;SDS011;48683;48.084;17.272;2023-12-20T02:46:49;170.13;;;33.03;;
62610;SDS011;48683;48.084;17.272;2023-12-20T02:49:14;186.15;;;34.15;;
62610;SDS011;48683;48.084;17.272;2023-12-20T02:51:40;179.45;;;34.45;;
62610;SDS011;48683;48.084;17.272;2023-12-20T02:54:05;162.65;;;30.75;;
62610;SDS011;48683;48.084;17.272;2023-12-20T02:56:31;162.50;;;32.10;;
62610;SDS011;48683;48.084;17.272;2023-12-20T02:58:57;121.00;;;28.38;;
62610;SDS011;48683;48.084;17.272;2023-12-20T03:01:23;213.63;;;30.98;;
62610;SDS011;48683;48.084;17.272;2023-12-20T03:03:48;177.82;;;31.70;;
62610;SDS011;48683;48.084;17.272;2023-12-20T03:06:16;204.15;;;30.88;;
62610;SDS011;48683;48.084;17.272;2023-12-20T03:08:44;147.38;;;29.05;;
62610;SDS011;48683;48.084;17.272;2023-12-20T03:11:10;193.68;;;31.48;;
62610;SDS011;48683;48.084;17.272;2023-12-20T03:13:36;314.92;;;37.72;;
62610;SDS011;48683;48.084;17.272;2023-12-20T03:16:01;125.80;;;29.55;;
62610;SDS011;48683;48.084;17.272;2023-12-20T03:18:32;224.02;;;32.55;;
62610;SDS011;48683;48.084;17.272;2023-12-20T03:20:58;127.57;;;28.55;;
62610;SDS011;48683;48.084;17.272;2023-12-20T03:23:23;218.18;;;32.83;;
62610;SDS011;48683;48.084;17.272;2023-12-20T03:25:48;224.40;;;31.10;;
62610;SDS011;48683;48.084;17.272;2023-12-20T03:28:14;236.65;;;34.20;;
62610;SDS011;48683;48.084;17.272;2023-12-20T03:30:40;244.50;;;34.85;;
62610;SDS011;48683;48.084;17.272;2023-12-20T03:33:06;221.73;;;33.95;;
62610;SDS011;48683;48.084;17.272;2023-12-20T03:35:32;252.07;;;34.05;;
62610;SDS011;48683;48.084;17.272;2023-12-20T03:37:57;175.48;;;30.50;;
62610;SDS011;48683;48.084;17.272;2023-12-20T03:40:25;201.70;;;32.60;;
62610;SDS011;48683;48.084;17.272;2023-12-20T03:42:50;134.50;;;28.52;;
62610;SDS011;48683;48.084;17.272;2023-12-20T03:45:15;167.88;;;30.42;;
62610;SDS011;48683;48.084;17.272;2023-12-20T03:47:41;89.43;;;26.50;;
62610;SDS011;48683;48.084;17.272;2023-12-20T03:50:06;137.80;;;28.30;;
62610;SDS011;48683;48.084;17.272;2023-12-20T03:52:32;195.25;;;30.20;;
62610;SDS011;48683;48.084;17.272;2023-12-20T03:54:57;71.70;;;24.50;;
62610;SDS011;48683;48.084;17.272;2023-12-20T03:57:22;185.75;;;29.35;;
62610;SDS011;48683;48.084;17.272;2023-12-20T03:59:48;58.45;;;24.13;;
62610;SDS011;48683;48.084;17.272;2023-12-20T04:02:13;82.40;;;24.90;;
62610;SDS011;48683;48.084;17.272;2023-12-20T04:04:39;61.80;;;23.25;;
62610;SDS011;48683;48.084;17.272;2023-12-20T04:07:04;126.97;;;27.52;;
62610;SDS011;48683;48.084;17.272;2023-12-20T04:09:29;178.77;;;31.20;;
62610;SDS011;48683;48.084;17.272;2023-12-20T04:11:55;213.60;;;30.60;;
62610;SDS011;48683;48.084;17.272;2023-12-20T04:14:20;148.65;;;26.23;;
62610;SDS011;48683;48.084;17.272;2023-12-20T04:16:46;122.00;;;25.35;;
62610;SDS011;48683;48.084;17.272;2023-12-20T04:19:11;181.70;;;28.95;;
62610;SDS011;48683;48.084;17.272;2023-12-20T04:21:36;149.82;;;26.55;;
62610;SDS011;48683;48.084;17.272;2023-12-20T04:24:02;139.02;;;26.90;;
62610;SDS011;48683;48.084;17.272;2023-12-20T04:26:27;209.32;;;30.60;;
62610;SDS011;48683;48.084;17.272;2023-12-20T04:28:53;195.90;;;29.48;;
62610;SDS011;48683;48.084;17.272;2023-12-20T04:31:18;162.88;;;29.05;;
62610;SDS011;48683;48.084;17.272;2023-12-20T04:33:43;176.93;;;31.85;;
62610;SDS011;48683;48.084;17.272;2023-12-20T04:36:09;203.38;;;31.33;;
62610;SDS011;48683;48.084;17.272;2023-12-20T04:38:34;120.55;;;25.40;;
62610;SDS011;48683;48.084;17.272;2023-12-20T04:40:59;124.63;;;26.38;;
62610;SDS011;48683;48.084;17.272;2023-12-20T04:43:25;224.52;;;32.38;;
62610;SDS011;48683;48.084;17.272;2023-12-20T04:45:50;228.13;;;31.42;;
62610;SDS011;48683;48.084;17.272;2023-12-20T04:48:15;50.17;;;23.27;;
62610;SDS011;48683;48.084;17.272;2023-12-20T04:50:41;171.32;;;28.33;;
62610;SDS011;48683;48.084;17.272;2023-12-20T04:53:07;169.43;;;28.85;;
62610;SDS011;48683;48.084;17.272;2023-12-20T04:55:32;184.20;;;28.25;;
62610;SDS011;48683;48.084;17.272;2023-12-20T04:57:57;146.52;;;25.83;;
62610;SDS011;48683;48.084;17.272;2023-12-20T05:00:23;122.70;;;24.83;;
62610;SDS011;48683;48.084;17.272;2023-12-20T05:02:48;149.38;;;25.15;;
62610;SDS011;48683;48.084;17.272;2023-12-20T05:05:13;148.20;;;28.33;;
62610;SDS011;48683;48.084;17.272;2023-12-20T05:07:40;129.00;;;25.70;;
62610;SDS011;48683;48.084;17.272;2023-12-20T05:10:05;83.28;;;24.27;;
62610;SDS011;48683;48.084;17.272;2023-12-20T05:12:33;136.88;;;27.00;;
62610;SDS011;48683;48.084;17.272;2023-12-20T05:14:58;163.65;;;29.90;;
62610;SDS011;48683;48.084;17.272;2023-12-20T05:17:24;178.27;;;27.77;;
62610;SDS011;48683;48.084;17.272;2023-12-20T05:19:49;190.20;;;27.63;;
62610;SDS011;48683;48.084;17.272;2023-12-20T05:22:15;179.25;;;29.73;;
62610;SDS011;48683;48.084;17.272;2023-12-20T05:24:40;158.35;;;28.15;;
62610;SDS011;48683;48.084;17.272;2023-12-20T05:27:06;128.05;;;27.95;;
62610;SDS011;48683;48.084;17.272;2023-12-20T05:29:31;175.77;;;26.40;;
62610;SDS011;48683;48.084;17.272;2023-12-20T05:31:57;169.10;;;30.65;;
62610;SDS011;48683;48.084;17.272;2023-12-20T05:34:23;127.60;;;28.67;;
62610;SDS011;48683;48.084;17.272;2023-12-20T05:36:49;144.75;;;26.83;;
62610;SDS011;48683;48.084;17.272;2023-12-20T05:39:14;120.70;;;27.40;;
62610;SDS011;48683;48.084;17.272;2023-12-20T05:41:39;125.95;;;26.90;;
62610;SDS011;48683;48.084;17.272;2023-12-20T05:44:05;69.78;;;24.75;;
62610;SDS011;48683;48.084;17.272;2023-12-20T05:46:30;137.70;;;30.35;;
62610;SDS011;48683;48.084;17.272;2023-12-20T05:48:57;145.23;;;27.95;;
62610;SDS011;48683;48.084;17.272;2023-12-20T05:51:22;87.30;;;23.58;;
62610;SDS011;48683;48.084;17.272;2023-12-20T05:53:47;95.43;;;24.67;;
62610;SDS011;48683;48.084;17.272;2023-12-20T05:56:14;95.72;;;25.98;;
62610;SDS011;48683;48.084;17.272;2023-12-20T05:58:40;126.07;;;26.58;;
62610;SDS011;48683;48.084;17.272;2023-12-20T06:01:05;116.65;;;25.38;;
62610;SDS011;48683;48.084;17.272;2023-12-20T06:03:32;128.63;;;25.83;;
62610;SDS011;48683;48.084;17.272;2023-12-20T06:05:58;140.13;;;27.20;;
62610;SDS011;48683;48.084;17.272;2023-12-20T06:10:50;101.90;;;24.93;;
62610;SDS011;48683;48.084;17.272;2023-12-20T06:13:16;49.90;;;21.08;;
62610;SDS011;48683;48.084;17.272;2023-12-20T06:15:41;131.77;;;26.52;;
62610;SDS011;48683;48.084;17.272;2023-12-20T06:18:07;46.25;;;22.38;;
62610;SDS011;48683;48.084;17.272;2023-12-20T06:20:32;101.00;;;28.38;;
62610;SDS011;48683;48.084;17.272;2023-12-20T06:22:58;162.13;;;28.63;;
62610;SDS011;48683;48.084;17.272;2023-12-20T06:25:23;106.93;;;25.45;;
62610;SDS011;48683;48.084;17.272;2023-12-20T06:27:49;132.43;;;26.33;;
62610;SDS011;48683;48.084;17.272;2023-12-20T06:30:15;113.63;;;25.92;;
62610;SDS011;48683;48.084;17.272;2023-12-20T06:32:40;75.13;;;22.05;;
62610;SDS011;48683;48.084;17.272;2023-12-20T06:35:07;105.03;;;25.77;;
62610;SDS011;48683;48.084;17.272;2023-12-20T06:37:33;121.90;;;25.27;;
62610;SDS011;48683;48.084;17.272;2023-12-20T06:39:58;108.05;;;24.45;;
62610;SDS011;48683;48.084;17.272;2023-12-20T06:42:24;95.95;;;24.05;;
62610;SDS011;48683;48.084;17.272;2023-12-20T06:44:49;120.82;;;26.75;;
62610;SDS011;48683;48.084;17.272;2023-12-20T06:47:15;105.03;;;25.48;;
62610;SDS011;48683;48.084;17.272;2023-12-20T06:49:40;112.47;;;25.63;;
62610;SDS011;48683;48.084;17.272;2023-12-20T06:52:05;73.15;;;23.05;;
62610;SDS011;48683;48.084;17.272;2023-12-20T06:54:31;52.25;;;23.42;;
62610;SDS011;48683;48.084;17.272;2023-12-20T06:56:59;44.10;;;23.60;;
62610;SDS011;48683;48.084;17.272;2023-12-20T06:59:24;53.28;;;23.05;;
62610;SDS011;48683;48.084;17.272;2023-12-20T07:01:49;43.78;;;22.02;;
62610;SDS011;48683;48.084;17.272;2023-12-20T07:04:15;128.95;;;28.05;;
62610;SDS011;48683;48.084;17.272;2023-12-20T07:06:41;95.53;;;26.30;;
62610;SDS011;48683;48.084;17.272;2023-12-20T07:09:06;150.25;;;26.23;;
62610;SDS011;48683;48.084;17.272;2023-12-20T07:11:32;119.40;;;25.48;;
62610;SDS011;48683;48.084;17.272;2023-12-20T07:13:57;93.18;;;23.45;;
62610;SDS011;48683;48.084;17.272;2023-12-20T07:16:22;54.38;;;23.55;;
62610;SDS011;48683;48.084;17.272;2023-12-20T07:18:48;57.92;;;23.48;;
62610;SDS011;48683;48.084;17.272;2023-12-20T07:21:13;75.28;;;23.58;;
62610;SDS011;48683;48.084;17.272;2023-12-20T07:23:38;47.70;;;23.05;;
62610;SDS011;48683;48.084;17.272;2023-12-20T07:26:04;56.28;;;22.63;;
62610;SDS011;48683;48.084;17.272;2023-12-20T07:28:29;63.10;;;23.20;;
62610;SDS011;48683;48.084;17.272;2023-12-20T07:30:54;80.90;;;23.40;;
62610;SDS011;48683;48.084;17.272;2023-12-20T07:33:20;46.30;;;21.27;;
62610;SDS011;48683;48.084;17.272;2023-12-20T07:35:45;90.47;;;24.35;;
62610;SDS011;48683;48.084;17.272;2023-12-20T07:38:11;101.50;;;26.05;;
62610;SDS011;48683;48.084;17.272;2023-12-20T07:40:37;53.38;;;22.70;;
62610;SDS011;48683;48.084;17.272;2023-12-20T07:43:03;78.68;;;23.40;;
62610;SDS011;48683;48.084;17.272;2023-12-20T07:45:28;42.58;;;22.33;;
62610;SDS011;48683;48.084;17.272;2023-12-20T07:47:53;87.90;;;24.30;;
62610;SDS011;48683;48.084;17.272;2023-12-20T07:50:19;63.38;;;22.92;;
62610;SDS011;48683;48.084;17.272;2023-12-20T07:52:44;59.35;;;24.80;;
62610;SDS011;48683;48.084;17.272;2023-12-20T07:55:10;61.88;;;25.35;;
62610;SDS011;48683;48.084;17.272;2023-12-20T07:57:35;72.97;;;23.65;;
62610;SDS011;48683;48.084;17.272;2023-12-20T08:00:01;80.93;;;23.00;;
62610;SDS011;48683;48.084;17.272;2023-12-20T08:02:28;64.15;;;22.65;;
62610;SDS011;48683;48.084;17.272;2023-12-20T08:04:54;67.57;;;25.25;;
62610;SDS011;48683;48.084;17.272;2023-12-20T08:07:19;69.03;;;25.17;;
62610;SDS011;48683;48.084;17.272;2023-12-20T08:09:44;76.50;;;26.73;;
62610;SDS011;48683;48.084;17.272;2023-12-20T08:12:10;51.97;;;22.98;;
62610;SDS011;48683;48.084;17.272;2023-12-20T08:14:36;63.53;;;25.25;;
62610;SDS011;48683;48.084;17.272;2023-12-20T08:17:01;54.88;;;23.08;;
62610;SDS011;48683;48.084;17.272;2023-12-20T08:19:26;67.13;;;24.88;;
62610;SDS011;48683;48.084;17.272;2023-12-20T08:21:52;83.32;;;28.02;;
62610;SDS011;48683;48.084;17.272;2023-12-20T08:24:17;74.80;;;25.52;;
62610;SDS011;48683;48.084;17.272;2023-12-20T08:26:42;67.97;;;23.77;;
62610;SDS011;48683;48.084;17.272;2023-12-20T08:29:08;87.93;;;26.02;;
62610;SDS011;48683;48.084;17.272;2023-12-20T08:31:33;97.35;;;25.52;;
62610;SDS011;48683;48.084;17.272;2023-12-20T08:33:59;52.10;;;23.38;;
62610;SDS011;48683;48.084;17.272;2023-12-20T08:36:24;61.45;;;24.40;;
62610;SDS011;48683;48.084;17.272;2023-12-20T08:38:50;66.97;;;26.30;;
62610;SDS011;48683;48.084;17.272;2023-12-20T08:41:18;58.70;;;23.77;;
62610;SDS011;48683;48.084;17.272;2023-12-20T08:43:45;51.53;;;23.63;;
62610;SDS011;48683;48.084;17.272;2023-12-20T08:46:10;53.92;;;24.42;;
62610;SDS011;48683;48.084;17.272;2023-12-20T08:48:36;56.92;;;25.15;;
62610;SDS011;48683;48.084;17.272;2023-12-20T08:51:02;60.08;;;25.65;;
62610;SDS011;48683;48.084;17.272;2023-12-20T08:53:27;60.75;;;25.10;;
62610;SDS011;48683;48.084;17.272;2023-12-20T08:55:53;67.47;;;24.77;;
62610;SDS011;48683;48.084;17.272;2023-12-20T08:58:18;74.88;;;24.92;;
62610;SDS011;48683;48.084;17.272;2023-12-20T09:00:44;59.60;;;25.63;;
62610;SDS011;48683;48.084;17.272;2023-12-20T09:03:10;69.97;;;25.00;;
62610;SDS011;48683;48.084;17.272;2023-12-20T09:05:35;48.22;;;23.98;;
62610;SDS011;48683;48.084;17.272;2023-12-20T09:08:00;54.67;;;24.02;;
62610;SDS011;48683;48.084;17.272;2023-12-20T09:10:26;50.08;;;23.52;;
62610;SDS011;48683;48.084;17.272;2023-12-20T09:12:51;60.10;;;25.25;;
62610;SDS011;48683;48.084;17.272;2023-12-20T09:15:25;73.47;;;25.70;;
62610;SDS011;48683;48.084;17.272;2023-12-20T09:17:51;60.53;;;24.90;;
62610;SDS011;48683;48.084;17.272;2023-12-20T09:20:17;77.22;;;25.58;;
62610;SDS011;48683;48.084;17.272;2023-12-20T09:22:42;59.05;;;25.45;;
62610;SDS011;48683;48.084;17.272;2023-12-20T09:25:09;52.13;;;24.40;;
62610;SDS011;48683;48.084;17.272;2023-12-20T09:27:35;56.60;;;25.15;;
62610;SDS011;48683;48.084;17.272;2023-12-20T09:30:00;53.80;;;24.35;;
62610;SDS011;48683;48.084;17.272;2023-12-20T09:32:26;60.10;;;25.50;;
62610;SDS011;48683;48.084;17.272;2023-12-20T09:34:51;59.90;;;26.90;;
62610;SDS011;48683;48.084;17.272;2023-12-20T09:37:16;50.58;;;24.15;;
62610;SDS011;48683;48.084;17.272;2023-12-20T09:39:42;55.63;;;25.08;;
62610;SDS011;48683;48.084;17.272;2023-12-20T09:42:07;61.50;;;26.60;;
62610;SDS011;48683;48.084;17.272;2023-12-20T09:44:35;50.38;;;23.73;;
62610;SDS011;48683;48.084;17.272;2023-12-20T09:47:02;49.05;;;24.25;;
62610;SDS011;48683;48.084;17.272;2023-12-20T09:49:28;51.28;;;24.38;;
62610;SDS011;48683;48.084;17.272;2023-12-20T09:51:55;51.75;;;24.33;;
62610;SDS011;48683;48.084;17.272;2023-12-20T09:54:21;50.92;;;24.25;;
62610;SDS011;48683;48.084;17.272;2023-12-20T09:56:47;58.60;;;25.40;;
62610;SDS011;48683;48.084;17.272;2023-12-20T09:59:13;52.28;;;24.38;;
62610;SDS011;48683;48.084;17.272;2023-12-20T10:01:39;51.38;;;24.50;;
62610;SDS011;48683;48.084;17.272;2023-12-20T10:04:06;54.65;;;23.48;;
62610;SDS011;48683;48.084;17.272;2023-12-20T10:06:34;50.40;;;22.98;;
62610;SDS011;48683;48.084;17.272;2023-12-20T10:09:01;54.28;;;24.98;;
62610;SDS011;48683;48.084;17.272;2023-12-20T10:11:26;47.00;;;24.13;;
62610;SDS011;48683;48.084;17.272;2023-12-20T10:13:53;48.92;;;22.77;;
62610;SDS011;48683;48.084;17.272;2023-12-20T10:16:24;42.88;;;21.45;;
62610;SDS011;48683;48.084;17.272;2023-12-20T10:18:50;48.37;;;23.87;;
62610;SDS011;48683;48.084;17.272;2023-12-20T10:21:21;41.80;;;22.60;;
62610;SDS011;48683;48.084;17.272;2023-12-20T10:23:47;48.67;;;23.35;;
62610;SDS011;48683;48.084;17.272;2023-12-20T10:26:22;41.67;;;22.48;;
62610;SDS011;48683;48.084;17.272;2023-12-20T10:28:54;36.83;;;18.40;;
62610;SDS011;48683;48.084;17.272;2023-12-20T10:31:27;32.65;;;16.80;;
62610;SDS011;48683;48.084;17.272;2023-12-20T10:33:53;8.13;;;5.78;;
62610;SDS011;48683;48.084;17.272;2023-12-20T10:36:20;8.32;;;6.07;;
62610;SDS011;48683;48.084;17.272;2023-12-20T10:38:46;5.35;;;4.85;;
62610;SDS011;48683;48.084;17.272;2023-12-20T10:41:15;7.25;;;3.78;;
62610;SDS011;48683;48.084;17.272;2023-12-20T10:44:03;5.25;;;4.15;;
62610;SDS011;48683;48.084;17.272;2023-12-20T10:46:31;3.30;;;2.90;;
62610;SDS011;48683;48.084;17.272;2023-12-20T10:49:01;2.88;;;2.60;;
62610;SDS011;48683;48.084;17.272;2023-12-20T10:51:27;2.28;;;1.98;;
62610;SDS011;48683;48.084;17.272;2023-12-20T10:56:20;2.43;;;2.23;;
62610;SDS011;48683;48.084;17.272;2023-12-20T10:58:46;3.03;;;2.22;;
62610;SDS011;48683;48.084;17.272;2023-12-20T11:01:13;2.85;;;2.22;;
62610;SDS011;48683;48.084;17.272;2023-12-20T11:03:44;4.25;;;2.42;;
62610;SDS011;48683;48.084;17.272;2023-12-20T11:06:33;4.60;;;2.03;;
62610;SDS011;48683;48.084;17.272;2023-12-20T11:14:45;2.38;;;2.17;;
62610;SDS011;48683;48.084;17.272;2023-12-20T11:17:12;3.20;;;2.20;;
62610;SDS011;48683;48.084;17.272;2023-12-20T11:22:25;3.28;;;2.10;;
62610;SDS011;48683;48.084;17.272;2023-12-20T11:24:53;4.03;;;2.28;;
62610;SDS011;48683;48.084;17.272;2023-12-20T11:27:19;2.78;;;2.35;;
62610;SDS011;48683;48.084;17.272;2023-12-20T11:29:51;3.22;;;2.17;;
62610;SDS011;48683;48.084;17.272;2023-12-20T11:34:50;3.60;;;2.50;;
62610;SDS011;48683;48.084;17.272;2023-12-20T11:39:43;2.70;;;2.30;;
62610;SDS011;48683;48.084;17.272;2023-12-20T11:42:09;3.25;;;2.38;;
62610;SDS011;48683;48.084;17.272;2023-12-20T11:44:35;2.83;;;2.00;;
62610;SDS011;48683;48.084;17.272;2023-12-20T11:47:01;3.40;;;2.50;;
62610;SDS011;48683;48.084;17.272;2023-12-20T11:49:27;2.80;;;2.42;;
62610;SDS011;48683;48.084;17.272;2023-12-20T11:54:19;2.20;;;2.00;;
62610;SDS011;48683;48.084;17.272;2023-12-20T11:56:45;4.47;;;1.95;;
62610;SDS011;48683;48.084;17.272;2023-12-20T11:59:11;2.70;;;2.35;;
62610;SDS011;48683;48.084;17.272;2023-12-20T12:01:37;2.80;;;2.60;;
62610;SDS011;48683;48.084;17.272;2023-12-20T12:04:05;2.90;;;2.65;;
62610;SDS011;48683;48.084;17.272;2023-12-20T12:06:31;3.47;;;2.75;;
62610;SDS011;48683;48.084;17.272;2023-12-20T12:08:56;2.60;;;2.40;;
62610;SDS011;48683;48.084;17.272;2023-12-20T12:11:22;3.75;;;2.40;;
62610;SDS011;48683;48.084;17.272;2023-12-20T12:13:48;2.38;;;2.17;;
62610;SDS011;48683;48.084;17.272;2023-12-20T12:16:17;2.10;;;1.90;;
62610;SDS011;48683;48.084;17.272;2023-12-20T12:18:44;2.80;;;2.30;;
62610;SDS011;48683;48.084;17.272;2023-12-20T12:21:09;5.60;;;2.60;;
62610;SDS011;48683;48.084;17.272;2023-12-20T12:23:35;4.93;;;2.83;;
62610;SDS011;48683;48.084;17.272;2023-12-20T12:26:03;3.03;;;2.55;;
62610;SDS011;48683;48.084;17.272;2023-12-20T12:28:29;4.30;;;3.10;;
62610;SDS011;48683;48.084;17.272;2023-12-20T12:30:57;4.85;;;3.20;;
62610;SDS011;48683;48.084;17.272;2023-12-20T12:33:24;5.03;;;3.60;;
62610;SDS011;48683;48.084;17.272;2023-12-20T12:38:16;3.73;;;2.80;;
62610;SDS011;48683;48.084;17.272;2023-12-20T12:40:41;2.67;;;2.45;;
62610;SDS011;48683;48.084;17.272;2023-12-20T12:45:33;2.93;;;2.40;;
62610;SDS011;48683;48.084;17.272;2023-12-20T12:47:59;2.60;;;2.10;;
62610;SDS011;48683;48.084;17.272;2023-12-20T12:50:24;5.30;;;3.53;;
62610;SDS011;48683;48.084;17.272;2023-12-20T12:52:49;4.57;;;3.75;;
62610;SDS011;48683;48.084;17.272;2023-12-20T12:55:15;8.20;;;4.72;;
62610;SDS011;48683;48.084;17.272;2023-12-20T12:57:40;39.67;;;8.25;;
62610;SDS011;48683;48.084;17.272;2023-12-20T13:00:06;10.02;;;5.05;;
62610;SDS011;48683;48.084;17.272;2023-12-20T13:02:34;11.82;;;6.53;;
62610;SDS011;48683;48.084;17.272;2023-12-20T13:04:59;5.25;;;2.88;;
62610;SDS011;48683;48.084;17.272;2023-12-20T13:07:25;5.35;;;3.25;;
62610;SDS011;48683;48.084;17.272;2023-12-20T13:09:51;4.68;;;2.80;;
62610;SDS011;48683;48.084;17.272;2023-12-20T13:12:16;2.92;;;2.30;;
62610;SDS011;48683;48.084;17.272;2023-12-20T13:14:42;4.38;;;3.40;;
62610;SDS011;48683;48.084;17.272;2023-12-20T13:17:07;5.50;;;4.20;;
62610;SDS011;48683;48.084;17.272;2023-12-20T13:19:32;2.70;;;2.38;;
62610;SDS011;48683;48.084;17.272;2023-12-20T13:21:58;3.30;;;3.00;;
62610;SDS011;48683;48.084;17.272;2023-12-20T13:24:23;2.92;;;2.60;;
62610;SDS011;48683;48.084;17.272;2023-12-20T13:26:49;3.95;;;3.40;;
62610;SDS011;48683;48.084;17.272;2023-12-20T13:29:14;3.08;;;2.00;;
62610;SDS011;48683;48.084;17.272;2023-12-20T13:31:40;4.32;;;2.50;;
62610;SDS011;48683;48.084;17.272;2023-12-20T13:34:05;3.03;;;2.53;;
62610;SDS011;48683;48.084;17.272;2023-12-20T13:36:31;3.27;;;2.00;;
62610;SDS011;48683;48.084;17.272;2023-12-20T13:38:57;2.60;;;2.20;;
62610;SDS011;48683;48.084;17.272;2023-12-20T13:41:22;3.08;;;2.42;;
62610;SDS011;48683;48.084;17.272;2023-12-20T13:43:48;2.63;;;2.28;;
62610;SDS011;48683;48.084;17.272;2023-12-20T13:46:13;2.88;;;2.38;;
62610;SDS011;48683;48.084;17.272;2023-12-20T13:48:39;3.03;;;2.33;;
62610;SDS011;48683;48.084;17.272;2023-12-20T13:51:04;3.75;;;2.30;;
62610;SDS011;48683;48.084;17.272;2023-12-20T13:53:30;2.53;;;2.33;;
62610;SDS011;48683;48.084;17.272;2023-12-20T13:55:56;2.70;;;2.35;;
62610;SDS011;48683;48.084;17.272;2023-12-20T13:58:22;3.33;;;3.03;;
62610;SDS011;48683;48.084;17.272;2023-12-20T14:00:48;3.70;;;3.28;;
62610;SDS011;48683;48.084;17.272;2023-12-20T14:03:13;6.13;;;4.65;;
62610;SDS011;48683;48.084;17.272;2023-12-20T14:05:38;32.33;;;18.95;;
62610;SDS011;48683;48.084;17.272;2023-12-20T14:08:04;85.63;;;42.53;;
62610;SDS011;48683;48.084;17.272;2023-12-20T14:10:31;5.50;;;3.78;;
62610;SDS011;48683;48.084;17.272;2023-12-20T14:12:56;3.97;;;2.90;;
62610;SDS011;48683;48.084;17.272;2023-12-20T14:15:22;3.15;;;2.80;;
62610;SDS011;48683;48.084;17.272;2023-12-20T14:17:50;54.42;;;24.13;;
62610;SDS011;48683;48.084;17.272;2023-12-20T14:20:15;93.07;;;40.67;;
62610;SDS011;48683;48.084;17.272;2023-12-20T14:22:41;8.82;;;5.20;;
62610;SDS011;48683;48.084;17.272;2023-12-20T14:25:12;3.28;;;2.88;;
62610;SDS011;48683;48.084;17.272;2023-12-20T14:27:39;3.30;;;3.00;;